sensor_id;sensor_type;location;lat;lon;timestamp;temperature;humidity
23347;DHT22;36852;45.466;11.066;2022-12-15T00:00:02;5.10;99.90
23347;DHT22;36852;45.466;11.066;2022-12-15T00:02:50;5.10;99.90
23347;DHT22;36852;45.466;11.066;2022-12-15T00:05:49;5.10;99.90
23347;DHT22;36852;45.466;11.066;2022-12-15T00:08:35;5.10;99.90
23347;DHT22;36852;45.466;11.066;2022-12-15T00:11:21;5.10;99.90
23347;DHT22;36852;45.466;11.066;2022-12-15T00:14:09;5.10;99.90
23347;DHT22;36852;45.466;11.066;2022-12-15T00:16:56;5.10;99.90
23347;DHT22;36852;45.466;11.066;2022-12-15T00:19:42;5.10;99.90
23347;DHT22;36852;45.466;11.066;2022-12-15T00:22:29;5.00;99.90
23347;DHT22;36852;45.466;11.066;2022-12-15T00:25:15;5.10;99.90
23347;DHT22;36852;45.466;11.066;2022-12-15T00:28:02;5.10;99.90
23347;DHT22;36852;45.466;11.066;2022-12-15T00:30:49;5.00;99.90
23347;DHT22;36852;45.466;11.066;2022-12-15T00:33:35;5.00;99.90
23347;DHT22;36852;45.466;11.066;2022-12-15T00:36:24;5.00;99.90
23347;DHT22;36852;45.466;11.066;2022-12-15T00:39:13;5.00;99.90
23347;DHT22;36852;45.466;11.066;2022-12-15T00:41:41;5.00;99.90
23347;DHT22;36852;45.466;11.066;2022-12-15T00:44:09;5.00;99.90
23347;DHT22;36852;45.466;11.066;2022-12-15T00:46:40;5.00;99.90
23347;DHT22;36852;45.466;11.066;2022-12-15T00:49:24;4.90;99.90
23347;DHT22;36852;45.466;11.066;2022-12-15T00:52:13;4.90;99.90
23347;DHT22;36852;45.466;11.066;2022-12-15T00:55:00;4.90;99.90
23347;DHT22;36852;45.466;11.066;2022-12-15T00:57:50;4.90;99.90
23347;DHT22;36852;45.466;11.066;2022-12-15T01:00:38;4.90;99.90
23347;DHT22;36852;45.466;11.066;2022-12-15T01:03:25;4.90;99.90
23347;DHT22;36852;45.466;11.066;2022-12-15T01:06:15;4.90;99.90
23347;DHT22;36852;45.466;11.066;2022-12-15T01:09:03;4.80;99.90
23347;DHT22;36852;45.466;11.066;2022-12-15T01:11:57;4.70;99.90
23347;DHT22;36852;45.466;11.066;2022-12-15T01:14:44;4.70;99.90
23347;DHT22;36852;45.466;11.066;2022-12-15T01:17:31;4.70;99.90
23347;DHT22;36852;45.466;11.066;2022-12-15T01:20:20;4.70;99.90
23347;DHT22;36852;45.466;11.066;2022-12-15T01:22:51;4.70;99.90
23347;DHT22;36852;45.466;11.066;2022-12-15T01:25:23;4.70;99.90
23347;DHT22;36852;45.466;11.066;2022-12-15T01:27:51;4.60;99.90
23347;DHT22;36852;45.466;11.066;2022-12-15T01:30:24;4.70;99.90
23347;DHT22;36852;45.466;11.066;2022-12-15T01:32:53;4.70;99.90
23347;DHT22;36852;45.466;11.066;2022-12-15T01:35:21;4.70;99.90
23347;DHT22;36852;45.466;11.066;2022-12-15T01:40:35;4.60;99.90
23347;DHT22;36852;45.466;11.066;2022-12-15T01:43:19;4.60;99.90
23347;DHT22;36852;45.466;11.066;2022-12-15T01:46:07;4.60;99.90
23347;DHT22;36852;45.466;11.066;2022-12-15T01:48:38;4.60;99.90
23347;DHT22;36852;45.466;11.066;2022-12-15T01:51:33;4.50;99.90
23347;DHT22;36852;45.466;11.066;2022-12-15T01:54:05;4.60;99.90
23347;DHT22;36852;45.466;11.066;2022-12-15T01:56:36;4.50;99.90
23347;DHT22;36852;45.466;11.066;2022-12-15T01:59:06;4.50;99.90
23347;DHT22;36852;45.466;11.066;2022-12-15T02:01:36;4.60;99.90
23347;DHT22;36852;45.466;11.066;2022-12-15T02:04:04;4.60;99.90
23347;DHT22;36852;45.466;11.066;2022-12-15T02:06:32;4.60;99.90
23347;DHT22;36852;45.466;11.066;2022-12-15T02:09:00;4.70;99.90
23347;DHT22;36852;45.466;11.066;2022-12-15T02:14:08;4.70;99.90
23347;DHT22;36852;45.466;11.066;2022-12-15T02:17:06;4.70;99.90
23347;DHT22;36852;45.466;11.066;2022-12-15T02:25:14;4.80;99.90
23347;DHT22;36852;45.466;11.066;2022-12-15T02:28:01;4.80;99.90
23347;DHT22;36852;45.466;11.066;2022-12-15T02:33:24;4.80;99.90
23347;DHT22;36852;45.466;11.066;2022-12-15T02:36:00;4.80;99.90
23347;DHT22;36852;45.466;11.066;2022-12-15T02:38:36;4.80;99.90
23347;DHT22;36852;45.466;11.066;2022-12-15T02:41:03;4.80;99.90
23347;DHT22;36852;45.466;11.066;2022-12-15T02:43:34;4.90;99.90
23347;DHT22;36852;45.466;11.066;2022-12-15T02:46:16;4.90;99.90
23347;DHT22;36852;45.466;11.066;2022-12-15T02:49:04;4.90;99.90
23347;DHT22;36852;45.466;11.066;2022-12-15T02:51:43;4.80;99.90
23347;DHT22;36852;45.466;11.066;2022-12-15T02:54:30;4.90;99.90
23347;DHT22;36852;45.466;11.066;2022-12-15T02:57:10;4.90;99.90
23347;DHT22;36852;45.466;11.066;2022-12-15T03:02:24;4.90;99.90
23347;DHT22;36852;45.466;11.066;2022-12-15T03:04:54;5.00;99.90
23347;DHT22;36852;45.466;11.066;2022-12-15T03:10:09;5.00;99.90
23347;DHT22;36852;45.466;11.066;2022-12-15T03:12:38;5.00;99.90
23347;DHT22;36852;45.466;11.066;2022-12-15T03:15:07;5.10;99.90
23347;DHT22;36852;45.466;11.066;2022-12-15T03:17:35;5.10;99.90
23347;DHT22;36852;45.466;11.066;2022-12-15T03:20:04;5.10;99.90
23347;DHT22;36852;45.466;11.066;2022-12-15T03:22:32;5.10;99.90
23347;DHT22;36852;45.466;11.066;2022-12-15T03:25:01;5.10;99.90
23347;DHT22;36852;45.466;11.066;2022-12-15T03:27:29;5.20;99.90
23347;DHT22;36852;45.466;11.066;2022-12-15T03:29:57;5.20;99.90
23347;DHT22;36852;45.466;11.066;2022-12-15T03:32:25;5.20;99.90
23347;DHT22;36852;45.466;11.066;2022-12-15T03:34:53;5.20;99.90
23347;DHT22;36852;45.466;11.066;2022-12-15T03:37:22;5.20;99.90
23347;DHT22;36852;45.466;11.066;2022-12-15T03:39:50;5.20;99.90
23347;DHT22;36852;45.466;11.066;2022-12-15T03:42:19;5.30;99.90
23347;DHT22;36852;45.466;11.066;2022-12-15T03:44:49;5.30;99.90
23347;DHT22;36852;45.466;11.066;2022-12-15T03:47:17;5.30;99.90
23347;DHT22;36852;45.466;11.066;2022-12-15T03:52:26;5.30;99.90
23347;DHT22;36852;45.466;11.066;2022-12-15T03:54:54;5.30;99.90
23347;DHT22;36852;45.466;11.066;2022-12-15T03:57:23;5.30;99.90
23347;DHT22;36852;45.466;11.066;2022-12-15T03:59:51;5.30;99.90
23347;DHT22;36852;45.466;11.066;2022-12-15T04:02:19;5.30;99.90
23347;DHT22;36852;45.466;11.066;2022-12-15T04:04:48;5.30;99.90
23347;DHT22;36852;45.466;11.066;2022-12-15T04:07:16;5.20;99.90
23347;DHT22;36852;45.466;11.066;2022-12-15T04:09:46;5.20;99.90
23347;DHT22;36852;45.466;11.066;2022-12-15T04:12:15;5.20;99.90
23347;DHT22;36852;45.466;11.066;2022-12-15T04:14:42;5.20;99.90
23347;DHT22;36852;45.466;11.066;2022-12-15T04:17:11;5.20;99.90
23347;DHT22;36852;45.466;11.066;2022-12-15T04:19:43;5.20;99.90
23347;DHT22;36852;45.466;11.066;2022-12-15T04:22:30;5.20;99.90
23347;DHT22;36852;45.466;11.066;2022-12-15T04:24:58;5.30;99.90
23347;DHT22;36852;45.466;11.066;2022-12-15T04:30:25;5.30;99.90
23347;DHT22;36852;45.466;11.066;2022-12-15T04:33:11;5.30;99.90
23347;DHT22;36852;45.466;11.066;2022-12-15T04:35:59;5.30;99.90
23347;DHT22;36852;45.466;11.066;2022-12-15T04:38:45;5.30;99.90
23347;DHT22;36852;45.466;11.066;2022-12-15T04:41:32;5.40;99.90
23347;DHT22;36852;45.466;11.066;2022-12-15T04:44:21;5.40;99.90
23347;DHT22;36852;45.466;11.066;2022-12-15T04:47:13;5.40;99.90
23347;DHT22;36852;45.466;11.066;2022-12-15T04:50:02;5.40;99.90
23347;DHT22;36852;45.466;11.066;2022-12-15T04:52:50;5.40;99.90
23347;DHT22;36852;45.466;11.066;2022-12-15T04:55:39;5.40;99.90
23347;DHT22;36852;45.466;11.066;2022-12-15T04:58:25;5.30;99.90
23347;DHT22;36852;45.466;11.066;2022-12-15T05:01:11;5.30;99.90
23347;DHT22;36852;45.466;11.066;2022-12-15T05:03:58;5.30;99.90
23347;DHT22;36852;45.466;11.066;2022-12-15T05:06:45;5.30;99.90
23347;DHT22;36852;45.466;11.066;2022-12-15T05:09:33;5.30;99.90
23347;DHT22;36852;45.466;11.066;2022-12-15T05:12:19;5.40;99.90
23347;DHT22;36852;45.466;11.066;2022-12-15T05:15:09;5.40;99.90
23347;DHT22;36852;45.466;11.066;2022-12-15T05:17:55;5.40;99.90
23347;DHT22;36852;45.466;11.066;2022-12-15T05:20:41;5.40;99.90
23347;DHT22;36852;45.466;11.066;2022-12-15T05:23:31;5.40;99.90
23347;DHT22;36852;45.466;11.066;2022-12-15T05:26:18;5.40;99.90
23347;DHT22;36852;45.466;11.066;2022-12-15T05:29:07;5.50;99.90
23347;DHT22;36852;45.466;11.066;2022-12-15T05:31:53;5.50;99.90
23347;DHT22;36852;45.466;11.066;2022-12-15T05:34:24;5.50;99.90
23347;DHT22;36852;45.466;11.066;2022-12-15T05:36:56;5.50;99.90
23347;DHT22;36852;45.466;11.066;2022-12-15T05:39:25;5.50;99.90
23347;DHT22;36852;45.466;11.066;2022-12-15T05:41:54;5.60;99.90
23347;DHT22;36852;45.466;11.066;2022-12-15T05:44:24;5.60;99.90
23347;DHT22;36852;45.466;11.066;2022-12-15T05:46:52;5.70;99.90
23347;DHT22;36852;45.466;11.066;2022-12-15T05:49:21;5.70;99.90
23347;DHT22;36852;45.466;11.066;2022-12-15T05:51:51;5.70;99.90
23347;DHT22;36852;45.466;11.066;2022-12-15T05:54:20;5.80;99.90
23347;DHT22;36852;45.466;11.066;2022-12-15T05:56:48;5.80;99.90
23347;DHT22;36852;45.466;11.066;2022-12-15T05:59:18;5.80;99.90
23347;DHT22;36852;45.466;11.066;2022-12-15T06:01:46;5.80;99.90
23347;DHT22;36852;45.466;11.066;2022-12-15T06:04:34;5.70;99.90
23347;DHT22;36852;45.466;11.066;2022-12-15T06:07:02;5.70;99.90
23347;DHT22;36852;45.466;11.066;2022-12-15T06:09:30;5.70;99.90
23347;DHT22;36852;45.466;11.066;2022-12-15T06:11:58;5.70;99.90
23347;DHT22;36852;45.466;11.066;2022-12-15T06:14:26;5.70;99.90
23347;DHT22;36852;45.466;11.066;2022-12-15T06:16:55;5.80;99.90
23347;DHT22;36852;45.466;11.066;2022-12-15T06:19:23;5.80;99.90
23347;DHT22;36852;45.466;11.066;2022-12-15T06:21:51;5.80;99.90
23347;DHT22;36852;45.466;11.066;2022-12-15T06:24:21;5.80;99.90
23347;DHT22;36852;45.466;11.066;2022-12-15T06:26:51;5.80;99.90
23347;DHT22;36852;45.466;11.066;2022-12-15T06:32:05;5.80;99.90
23347;DHT22;36852;45.466;11.066;2022-12-15T06:37:20;5.80;99.90
23347;DHT22;36852;45.466;11.066;2022-12-15T06:42:32;5.80;99.90
23347;DHT22;36852;45.466;11.066;2022-12-15T06:45:00;5.80;99.90
23347;DHT22;36852;45.466;11.066;2022-12-15T06:47:28;5.80;99.90
23347;DHT22;36852;45.466;11.066;2022-12-15T06:49:59;5.80;99.90
23347;DHT22;36852;45.466;11.066;2022-12-15T06:52:28;5.80;99.90
23347;DHT22;36852;45.466;11.066;2022-12-15T06:54:55;5.80;99.90
23347;DHT22;36852;45.466;11.066;2022-12-15T06:57:23;5.80;99.90
23347;DHT22;36852;45.466;11.066;2022-12-15T06:59:51;5.80;99.90
23347;DHT22;36852;45.466;11.066;2022-12-15T07:02:19;5.80;99.90
23347;DHT22;36852;45.466;11.066;2022-12-15T07:04:49;5.80;99.90
23347;DHT22;36852;45.466;11.066;2022-12-15T07:07:17;5.90;99.90
23347;DHT22;36852;45.466;11.066;2022-12-15T07:10:05;5.90;99.90
23347;DHT22;36852;45.466;11.066;2022-12-15T07:12:33;5.90;99.90
23347;DHT22;36852;45.466;11.066;2022-12-15T07:15:10;5.90;99.90
23347;DHT22;36852;45.466;11.066;2022-12-15T07:17:38;5.90;99.90
23347;DHT22;36852;45.466;11.066;2022-12-15T07:20:07;6.00;99.90
23347;DHT22;36852;45.466;11.066;2022-12-15T07:22:41;6.00;99.90
23347;DHT22;36852;45.466;11.066;2022-12-15T07:25:09;6.00;99.90
23347;DHT22;36852;45.466;11.066;2022-12-15T07:27:39;6.00;99.90
23347;DHT22;36852;45.466;11.066;2022-12-15T07:30:08;6.00;99.90
23347;DHT22;36852;45.466;11.066;2022-12-15T07:32:41;6.00;99.90
23347;DHT22;36852;45.466;11.066;2022-12-15T07:35:10;6.00;99.90
23347;DHT22;36852;45.466;11.066;2022-12-15T07:37:38;6.00;99.90
23347;DHT22;36852;45.466;11.066;2022-12-15T07:40:07;6.00;99.90
23347;DHT22;36852;45.466;11.066;2022-12-15T07:42:35;6.00;99.90
23347;DHT22;36852;45.466;11.066;2022-12-15T07:45:04;6.10;99.90
23347;DHT22;36852;45.466;11.066;2022-12-15T07:47:33;6.10;99.90
23347;DHT22;36852;45.466;11.066;2022-12-15T07:50:03;6.10;99.90
23347;DHT22;36852;45.466;11.066;2022-12-15T07:52:31;6.10;99.90
23347;DHT22;36852;45.466;11.066;2022-12-15T07:55:00;6.10;99.90
23347;DHT22;36852;45.466;11.066;2022-12-15T07:57:28;6.10;99.90
23347;DHT22;36852;45.466;11.066;2022-12-15T07:59:56;6.10;99.90
23347;DHT22;36852;45.466;11.066;2022-12-15T08:02:29;6.20;99.90
23347;DHT22;36852;45.466;11.066;2022-12-15T08:04:57;6.20;99.90
23347;DHT22;36852;45.466;11.066;2022-12-15T08:07:26;6.30;99.90
23347;DHT22;36852;45.466;11.066;2022-12-15T08:09:57;6.30;99.90
23347;DHT22;36852;45.466;11.066;2022-12-15T08:12:30;6.30;99.90
23347;DHT22;36852;45.466;11.066;2022-12-15T08:14:57;6.30;99.90
23347;DHT22;36852;45.466;11.066;2022-12-15T08:17:25;6.30;99.90
23347;DHT22;36852;45.466;11.066;2022-12-15T08:19:53;6.30;99.90
23347;DHT22;36852;45.466;11.066;2022-12-15T08:22:23;6.40;99.90
23347;DHT22;36852;45.466;11.066;2022-12-15T08:24:51;6.40;99.90
23347;DHT22;36852;45.466;11.066;2022-12-15T08:27:21;6.40;99.90
23347;DHT22;36852;45.466;11.066;2022-12-15T08:29:51;6.50;99.90
23347;DHT22;36852;45.466;11.066;2022-12-15T08:32:19;6.50;99.90
23347;DHT22;36852;45.466;11.066;2022-12-15T08:34:47;6.50;99.90
23347;DHT22;36852;45.466;11.066;2022-12-15T08:37:16;6.50;99.90
23347;DHT22;36852;45.466;11.066;2022-12-15T08:39:44;6.50;99.90
23347;DHT22;36852;45.466;11.066;2022-12-15T08:42:12;6.50;99.90
23347;DHT22;36852;45.466;11.066;2022-12-15T08:44:40;6.60;99.90
23347;DHT22;36852;45.466;11.066;2022-12-15T08:47:08;6.60;99.90
23347;DHT22;36852;45.466;11.066;2022-12-15T08:49:36;6.60;99.90
23347;DHT22;36852;45.466;11.066;2022-12-15T08:52:04;6.60;99.90
23347;DHT22;36852;45.466;11.066;2022-12-15T08:54:33;6.60;99.90
23347;DHT22;36852;45.466;11.066;2022-12-15T08:57:01;6.70;99.90
23347;DHT22;36852;45.466;11.066;2022-12-15T08:59:28;6.70;99.90
23347;DHT22;36852;45.466;11.066;2022-12-15T09:01:56;6.70;99.90
23347;DHT22;36852;45.466;11.066;2022-12-15T09:04:24;6.70;99.90
23347;DHT22;36852;45.466;11.066;2022-12-15T09:06:52;6.80;99.90
23347;DHT22;36852;45.466;11.066;2022-12-15T09:09:23;6.70;99.90
23347;DHT22;36852;45.466;11.066;2022-12-15T09:11:58;6.80;99.90
23347;DHT22;36852;45.466;11.066;2022-12-15T09:14:26;6.80;99.90
23347;DHT22;36852;45.466;11.066;2022-12-15T09:16:55;6.80;99.90
23347;DHT22;36852;45.466;11.066;2022-12-15T09:22:08;6.80;99.90
23347;DHT22;36852;45.466;11.066;2022-12-15T09:24:36;6.80;99.90
23347;DHT22;36852;45.466;11.066;2022-12-15T09:29:46;6.80;99.90
23347;DHT22;36852;45.466;11.066;2022-12-15T09:32:15;6.90;99.90
23347;DHT22;36852;45.466;11.066;2022-12-15T09:34:43;6.90;99.90
23347;DHT22;36852;45.466;11.066;2022-12-15T09:37:11;6.90;99.90
23347;DHT22;36852;45.466;11.066;2022-12-15T09:39:39;6.90;99.90
23347;DHT22;36852;45.466;11.066;2022-12-15T09:42:28;7.00;99.90
23347;DHT22;36852;45.466;11.066;2022-12-15T09:45:16;7.00;99.90
23347;DHT22;36852;45.466;11.066;2022-12-15T09:47:57;7.00;99.90
23347;DHT22;36852;45.466;11.066;2022-12-15T09:50:32;7.10;99.90
23347;DHT22;36852;45.466;11.066;2022-12-15T09:52:59;7.10;99.90
23347;DHT22;36852;45.466;11.066;2022-12-15T09:55:29;7.10;99.90
23347;DHT22;36852;45.466;11.066;2022-12-15T10:00:57;7.20;99.90
23347;DHT22;36852;45.466;11.066;2022-12-15T10:03:39;7.20;99.90
23347;DHT22;36852;45.466;11.066;2022-12-15T10:06:12;7.20;99.90
23347;DHT22;36852;45.466;11.066;2022-12-15T10:08:54;7.30;99.90
23347;DHT22;36852;45.466;11.066;2022-12-15T10:11:53;7.30;99.90
23347;DHT22;36852;45.466;11.066;2022-12-15T10:17:22;7.30;99.90
23347;DHT22;36852;45.466;11.066;2022-12-15T10:20:11;7.20;99.90
23347;DHT22;36852;45.466;11.066;2022-12-15T10:22:36;7.20;99.90
23347;DHT22;36852;45.466;11.066;2022-12-15T10:25:17;7.20;99.90
23347;DHT22;36852;45.466;11.066;2022-12-15T10:30:55;7.30;99.90
23347;DHT22;36852;45.466;11.066;2022-12-15T10:33:26;7.30;99.90
23347;DHT22;36852;45.466;11.066;2022-12-15T10:35:56;7.30;99.90
23347;DHT22;36852;45.466;11.066;2022-12-15T10:38:33;7.40;99.90
23347;DHT22;36852;45.466;11.066;2022-12-15T10:41:06;7.40;99.90
23347;DHT22;36852;45.466;11.066;2022-12-15T10:43:50;7.40;99.90
23347;DHT22;36852;45.466;11.066;2022-12-15T10:48:52;7.50;99.90
23347;DHT22;36852;45.466;11.066;2022-12-15T10:51:44;7.40;99.90
23347;DHT22;36852;45.466;11.066;2022-12-15T10:54:35;7.40;99.90
23347;DHT22;36852;45.466;11.066;2022-12-15T10:57:19;7.30;99.90
23347;DHT22;36852;45.466;11.066;2022-12-15T10:59:45;7.20;99.90
23347;DHT22;36852;45.466;11.066;2022-12-15T11:07:55;7.20;99.90
23347;DHT22;36852;45.466;11.066;2022-12-15T11:10:29;7.20;99.90
23347;DHT22;36852;45.466;11.066;2022-12-15T11:13:20;7.30;99.90
23347;DHT22;36852;45.466;11.066;2022-12-15T11:15:51;7.40;99.90
23347;DHT22;36852;45.466;11.066;2022-12-15T11:18:41;7.40;99.90
23347;DHT22;36852;45.466;11.066;2022-12-15T11:21:25;7.40;99.90
23347;DHT22;36852;45.466;11.066;2022-12-15T11:26:41;7.50;99.90
23347;DHT22;36852;45.466;11.066;2022-12-15T11:29:32;7.60;99.90
23347;DHT22;36852;45.466;11.066;2022-12-15T11:32:01;7.60;99.90
23347;DHT22;36852;45.466;11.066;2022-12-15T11:34:43;7.60;99.90
23347;DHT22;36852;45.466;11.066;2022-12-15T11:54:29;7.60;99.90
23347;DHT22;36852;45.466;11.066;2022-12-15T11:57:02;7.60;99.90
23347;DHT22;36852;45.466;11.066;2022-12-15T12:07:48;7.70;99.90
23347;DHT22;36852;45.466;11.066;2022-12-15T12:13:27;7.70;99.90
23347;DHT22;36852;45.466;11.066;2022-12-15T12:18:44;7.70;99.90
23347;DHT22;36852;45.466;11.066;2022-12-15T12:21:17;7.70;99.90
23347;DHT22;36852;45.466;11.066;2022-12-15T12:23:52;7.70;99.90
23347;DHT22;36852;45.466;11.066;2022-12-15T12:26:25;7.70;99.90
23347;DHT22;36852;45.466;11.066;2022-12-15T12:29:19;7.70;99.90
23347;DHT22;36852;45.466;11.066;2022-12-15T12:31:56;7.60;99.90
23347;DHT22;36852;45.466;11.066;2022-12-15T12:34:31;7.50;99.90
23347;DHT22;36852;45.466;11.066;2022-12-15T12:37:08;7.50;99.90
23347;DHT22;36852;45.466;11.066;2022-12-15T12:39:33;7.50;99.90
23347;DHT22;36852;45.466;11.066;2022-12-15T12:42:08;7.60;99.90
23347;DHT22;36852;45.466;11.066;2022-12-15T12:44:38;7.60;99.90
23347;DHT22;36852;45.466;11.066;2022-12-15T12:47:31;7.60;99.90
23347;DHT22;36852;45.466;11.066;2022-12-15T12:50:03;7.60;99.90
23347;DHT22;36852;45.466;11.066;2022-12-15T12:52:35;7.60;99.90
23347;DHT22;36852;45.466;11.066;2022-12-15T12:57:43;7.70;99.90
23347;DHT22;36852;45.466;11.066;2022-12-15T13:00:31;7.70;99.90
23347;DHT22;36852;45.466;11.066;2022-12-15T13:03:19;7.80;99.90
23347;DHT22;36852;45.466;11.066;2022-12-15T13:05:49;7.80;99.90
23347;DHT22;36852;45.466;11.066;2022-12-15T13:08:44;7.80;99.90
23347;DHT22;36852;45.466;11.066;2022-12-15T13:10:55;7.90;99.90
23347;DHT22;36852;45.466;11.066;2022-12-15T13:13:34;7.90;99.90
23347;DHT22;36852;45.466;11.066;2022-12-15T13:16:20;8.00;99.90
23347;DHT22;36852;45.466;11.066;2022-12-15T13:19:01;8.00;99.90
23347;DHT22;36852;45.466;11.066;2022-12-15T13:26:49;8.10;99.90
23347;DHT22;36852;45.466;11.066;2022-12-15T13:29:20;8.10;99.90
23347;DHT22;36852;45.466;11.066;2022-12-15T13:31:54;8.10;99.90
23347;DHT22;36852;45.466;11.066;2022-12-15T13:34:23;8.10;99.90
23347;DHT22;36852;45.466;11.066;2022-12-15T13:36:54;8.20;99.90
23347;DHT22;36852;45.466;11.066;2022-12-15T13:39:31;8.20;99.90
23347;DHT22;36852;45.466;11.066;2022-12-15T13:44:39;8.20;99.90
23347;DHT22;36852;45.466;11.066;2022-12-15T13:47:14;8.20;99.90
23347;DHT22;36852;45.466;11.066;2022-12-15T13:52:38;8.20;99.90
23347;DHT22;36852;45.466;11.066;2022-12-15T13:55:17;8.10;99.90
23347;DHT22;36852;45.466;11.066;2022-12-15T14:00:28;8.10;99.90
23347;DHT22;36852;45.466;11.066;2022-12-15T14:03:06;8.10;99.90
23347;DHT22;36852;45.466;11.066;2022-12-15T14:05:35;8.10;99.90
23347;DHT22;36852;45.466;11.066;2022-12-15T14:08:14;8.10;99.90
23347;DHT22;36852;45.466;11.066;2022-12-15T14:10:54;8.10;99.90
23347;DHT22;36852;45.466;11.066;2022-12-15T14:13:26;8.10;99.90
23347;DHT22;36852;45.466;11.066;2022-12-15T14:18:37;8.10;99.90
23347;DHT22;36852;45.466;11.066;2022-12-15T14:21:20;8.10;99.90
23347;DHT22;36852;45.466;11.066;2022-12-15T14:23:49;8.10;99.90
23347;DHT22;36852;45.466;11.066;2022-12-15T14:26:24;8.00;99.90
23347;DHT22;36852;45.466;11.066;2022-12-15T14:28:57;7.90;99.90
23347;DHT22;36852;45.466;11.066;2022-12-15T14:31:23;7.90;99.90
23347;DHT22;36852;45.466;11.066;2022-12-15T14:36:41;7.80;99.90
23347;DHT22;36852;45.466;11.066;2022-12-15T14:41:50;7.60;99.90
23347;DHT22;36852;45.466;11.066;2022-12-15T14:46:59;7.60;99.90
23347;DHT22;36852;45.466;11.066;2022-12-15T14:49:32;7.60;99.90
23347;DHT22;36852;45.466;11.066;2022-12-15T14:52:03;7.70;99.90
23347;DHT22;36852;45.466;11.066;2022-12-15T14:54:36;7.70;99.90
23347;DHT22;36852;45.466;11.066;2022-12-15T14:57:11;7.70;99.90
23347;DHT22;36852;45.466;11.066;2022-12-15T14:59:42;7.70;99.90
23347;DHT22;36852;45.466;11.066;2022-12-15T15:04:58;7.80;99.90
23347;DHT22;36852;45.466;11.066;2022-12-15T15:07:29;7.80;99.90
23347;DHT22;36852;45.466;11.066;2022-12-15T15:09:58;7.80;99.90
23347;DHT22;36852;45.466;11.066;2022-12-15T15:12:40;7.80;99.90
23347;DHT22;36852;45.466;11.066;2022-12-15T15:15:16;7.80;99.90
23347;DHT22;36852;45.466;11.066;2022-12-15T15:17:53;7.80;99.90
23347;DHT22;36852;45.466;11.066;2022-12-15T15:20:28;7.80;99.90
23347;DHT22;36852;45.466;11.066;2022-12-15T15:23:17;7.70;99.90
23347;DHT22;36852;45.466;11.066;2022-12-15T15:26:05;7.70;99.90
23347;DHT22;36852;45.466;11.066;2022-12-15T15:28:43;7.70;99.90
23347;DHT22;36852;45.466;11.066;2022-12-15T15:31:29;7.70;99.90
23347;DHT22;36852;45.466;11.066;2022-12-15T15:34:03;7.70;99.90
23347;DHT22;36852;45.466;11.066;2022-12-15T15:36:36;7.60;99.90
23347;DHT22;36852;45.466;11.066;2022-12-15T15:39:13;7.60;99.90
23347;DHT22;36852;45.466;11.066;2022-12-15T15:41:42;7.60;99.90
23347;DHT22;36852;45.466;11.066;2022-12-15T15:44:12;7.60;99.90
23347;DHT22;36852;45.466;11.066;2022-12-15T15:46:47;7.50;99.90
23347;DHT22;36852;45.466;11.066;2022-12-15T15:49:18;7.60;99.90
23347;DHT22;36852;45.466;11.066;2022-12-15T15:51:51;7.60;99.90
23347;DHT22;36852;45.466;11.066;2022-12-15T15:54:22;7.60;99.90
23347;DHT22;36852;45.466;11.066;2022-12-15T15:56:51;7.60;99.90
23347;DHT22;36852;45.466;11.066;2022-12-15T15:59:20;7.60;99.90
23347;DHT22;36852;45.466;11.066;2022-12-15T16:01:52;7.50;99.90
23347;DHT22;36852;45.466;11.066;2022-12-15T16:04:22;7.50;99.90
23347;DHT22;36852;45.466;11.066;2022-12-15T16:06:51;7.50;99.90
23347;DHT22;36852;45.466;11.066;2022-12-15T16:09:19;7.50;99.90
23347;DHT22;36852;45.466;11.066;2022-12-15T16:11:47;7.50;99.90
23347;DHT22;36852;45.466;11.066;2022-12-15T16:14:17;7.50;99.90
23347;DHT22;36852;45.466;11.066;2022-12-15T16:16:45;7.50;99.90
23347;DHT22;36852;45.466;11.066;2022-12-15T16:19:36;7.50;99.90
23347;DHT22;36852;45.466;11.066;2022-12-15T16:22:11;7.50;99.90
23347;DHT22;36852;45.466;11.066;2022-12-15T16:24:37;7.50;99.90
23347;DHT22;36852;45.466;11.066;2022-12-15T16:27:07;7.50;99.90
23347;DHT22;36852;45.466;11.066;2022-12-15T16:29:37;7.50;99.90
23347;DHT22;36852;45.466;11.066;2022-12-15T16:32:07;7.40;99.90
23347;DHT22;36852;45.466;11.066;2022-12-15T16:34:36;7.40;99.90
23347;DHT22;36852;45.466;11.066;2022-12-15T16:37:04;7.40;99.90
23347;DHT22;36852;45.466;11.066;2022-12-15T16:39:33;7.40;99.90
23347;DHT22;36852;45.466;11.066;2022-12-15T16:42:04;7.40;99.90
23347;DHT22;36852;45.466;11.066;2022-12-15T16:44:32;7.40;99.90
23347;DHT22;36852;45.466;11.066;2022-12-15T16:47:01;7.40;99.90
23347;DHT22;36852;45.466;11.066;2022-12-15T16:49:29;7.50;99.90
23347;DHT22;36852;45.466;11.066;2022-12-15T16:52:00;7.50;99.90
23347;DHT22;36852;45.466;11.066;2022-12-15T16:54:29;7.60;99.90
23347;DHT22;36852;45.466;11.066;2022-12-15T16:56:58;7.60;99.90
23347;DHT22;36852;45.466;11.066;2022-12-15T16:59:26;7.60;99.90
23347;DHT22;36852;45.466;11.066;2022-12-15T17:01:56;7.60;99.90
23347;DHT22;36852;45.466;11.066;2022-12-15T17:04:25;7.60;99.90
23347;DHT22;36852;45.466;11.066;2022-12-15T17:06:54;7.60;99.90
23347;DHT22;36852;45.466;11.066;2022-12-15T17:09:22;7.60;99.90
23347;DHT22;36852;45.466;11.066;2022-12-15T17:11:52;7.60;99.90
23347;DHT22;36852;45.466;11.066;2022-12-15T17:14:21;7.60;99.90
23347;DHT22;36852;45.466;11.066;2022-12-15T17:16:49;7.60;99.90
23347;DHT22;36852;45.466;11.066;2022-12-15T17:19:17;7.60;99.90
23347;DHT22;36852;45.466;11.066;2022-12-15T17:21:49;7.70;99.90
23347;DHT22;36852;45.466;11.066;2022-12-15T17:24:19;7.70;99.90
23347;DHT22;36852;45.466;11.066;2022-12-15T17:26:48;7.70;99.90
23347;DHT22;36852;45.466;11.066;2022-12-15T17:29:19;7.70;99.90
23347;DHT22;36852;45.466;11.066;2022-12-15T17:31:47;7.70;99.90
23347;DHT22;36852;45.466;11.066;2022-12-15T17:34:33;7.70;99.90
23347;DHT22;36852;45.466;11.066;2022-12-15T17:37:03;7.60;99.90
23347;DHT22;36852;45.466;11.066;2022-12-15T17:39:33;7.60;99.90
23347;DHT22;36852;45.466;11.066;2022-12-15T17:42:00;7.60;99.90
23347;DHT22;36852;45.466;11.066;2022-12-15T17:44:32;7.60;99.90
23347;DHT22;36852;45.466;11.066;2022-12-15T17:47:04;7.60;99.90
23347;DHT22;36852;45.466;11.066;2022-12-15T17:49:33;7.70;99.90
23347;DHT22;36852;45.466;11.066;2022-12-15T17:52:24;7.70;99.90
23347;DHT22;36852;45.466;11.066;2022-12-15T17:54:55;7.70;99.90
23347;DHT22;36852;45.466;11.066;2022-12-15T17:57:23;7.70;99.90
23347;DHT22;36852;45.466;11.066;2022-12-15T18:00:15;7.70;99.90
23347;DHT22;36852;45.466;11.066;2022-12-15T18:02:44;7.70;99.90
23347;DHT22;36852;45.466;11.066;2022-12-15T18:05:12;7.60;99.90
23347;DHT22;36852;45.466;11.066;2022-12-15T18:07:39;7.60;99.90
23347;DHT22;36852;45.466;11.066;2022-12-15T18:10:31;7.60;99.90
23347;DHT22;36852;45.466;11.066;2022-12-15T18:13:00;7.60;99.90